DLH2GY EGPF-EFHK
Flight info
| Callsign | DLH2GY |
|---|---|
| Flight time | 2h 10m |
| Altitude | 39000 |
| Route | PTH P600 GLESK DCT OSLEL DCT BUDON DCT OVDAN DCT KLONN DCT ESEBA DCT EVLAN DCT IBVUT Y363 LAKUT |
| Aircraft | A320/M-SDE3FGHIRWY/LB1 |
Departure
| Time | 2026-05-07 15:26 |
|---|---|
| Airport | Glasgow Airport (EGPF) |
Arrival
| Time | 2026-05-07 17:37 |
|---|---|
| Airport | Helsinki Vantaa Airport (EFHK) |
| Time | Latitude | Longitude | Altitude | Speed | Heading |
|---|---|---|---|---|---|
| 2026-05-07 15:04 | 55.86517 | -4.43674 | 15 ft | 0 kts | 255° |
| 2026-05-07 15:14 | 55.86520 | -4.43654 | 15 ft | 4 kts | 255° |
| 2026-05-07 15:15 | 55.86527 | -4.43608 | 17 ft | 4 kts | 256° |
| 2026-05-07 15:15 | 55.86532 | -4.43561 | 19 ft | 4 kts | 268° |
| 2026-05-07 15:15 | 55.86528 | -4.43522 | 18 ft | 3 kts | 334° |
| 2026-05-07 15:15 | 55.86525 | -4.43518 | 17 ft | 0 kts | 344° |
| 2026-05-07 15:18 | 55.86541 | -4.43526 | 17 ft | 4 kts | 344° |
| 2026-05-07 15:18 | 55.86570 | -4.43541 | 15 ft | 5 kts | 344° |
| 2026-05-07 15:19 | 55.86602 | -4.43557 | 16 ft | 5 kts | 344° |
| 2026-05-07 15:19 | 55.86634 | -4.43573 | 15 ft | 5 kts | 344° |
| 2026-05-07 15:19 | 55.86668 | -4.43591 | 15 ft | 6 kts | 343° |
| 2026-05-07 15:19 | 55.86706 | -4.43611 | 15 ft | 6 kts | 343° |
| 2026-05-07 15:20 | 55.86744 | -4.43613 | 15 ft | 6 kts | 26° |
| 2026-05-07 15:20 | 55.86763 | -4.43547 | 15 ft | 6 kts | 72° |
| 2026-05-07 15:20 | 55.86775 | -4.43476 | 15 ft | 6 kts | 74° |
| 2026-05-07 15:20 | 55.86790 | -4.43385 | 15 ft | 10 kts | 74° |
| 2026-05-07 15:21 | 55.86808 | -4.43272 | 16 ft | 10 kts | 73° |
| 2026-05-07 15:21 | 55.86827 | -4.43158 | 15 ft | 10 kts | 74° |
| 2026-05-07 15:21 | 55.86845 | -4.43043 | 15 ft | 10 kts | 74° |
| 2026-05-07 15:21 | 55.86882 | -4.42954 | 15 ft | 9 kts | 27° |
| 2026-05-07 15:22 | 55.86939 | -4.42902 | 15 ft | 9 kts | 27° |
| 2026-05-07 15:22 | 55.87022 | -4.42835 | 15 ft | 19 kts | 20° |
| 2026-05-07 15:22 | 55.87157 | -4.42746 | 15 ft | 21 kts | 21° |
| 2026-05-07 15:22 | 55.87295 | -4.42654 | 18 ft | 21 kts | 19° |
| 2026-05-07 15:23 | 55.87419 | -4.42534 | 15 ft | 20 kts | 46° |
| 2026-05-07 15:23 | 55.87515 | -4.42358 | 15 ft | 20 kts | 46° |
| 2026-05-07 15:23 | 55.87610 | -4.42180 | 15 ft | 20 kts | 46° |
| 2026-05-07 15:23 | 55.87704 | -4.42003 | 15 ft | 19 kts | 47° |
| 2026-05-07 15:24 | 55.87793 | -4.41855 | 15 ft | 13 kts | 27° |
| 2026-05-07 15:24 | 55.87842 | -4.41848 | 15 ft | 1 kts | 355° |
| 2026-05-07 15:24 | 55.87848 | -4.41849 | 15 ft | 3 kts | 355° |
| 2026-05-07 15:24 | 55.87883 | -4.41859 | 16 ft | 6 kts | 344° |
| 2026-05-07 15:25 | 55.87921 | -4.41896 | 16 ft | 6 kts | 323° |
| 2026-05-07 15:25 | 55.87938 | -4.41942 | 15 ft | 3 kts | 259° |
| 2026-05-07 15:25 | 55.87912 | -4.41992 | 15 ft | 10 kts | 227° |
| 2026-05-07 15:25 | 55.87731 | -4.42328 | 15 ft | 78 kts | 226° |
| 2026-05-07 15:26 | 55.87198 | -4.43327 | 17 ft | 144 kts | 226° |
| 2026-05-07 15:26 | 55.86478 | -4.44739 | 674 ft | 155 kts | 223° |
| 2026-05-07 15:26 | 55.85730 | -4.46175 | 1589 ft | 167 kts | 225° |
| 2026-05-07 15:26 | 55.84860 | -4.47770 | 2176 ft | 193 kts | 224° |
| 2026-05-07 15:27 | 55.83839 | -4.49601 | 2842 ft | 222 kts | 224° |
| 2026-05-07 15:27 | 55.82738 | -4.51635 | 3765 ft | 237 kts | 225° |
| 2026-05-07 15:27 | 55.81576 | -4.53790 | 4335 ft | 242 kts | 225° |
| 2026-05-07 15:27 | 55.80780 | -4.55312 | 4647 ft | 243 kts | 231° |
| 2026-05-07 15:28 | 55.80177 | -4.57865 | 4950 ft | 249 kts | 258° |
| 2026-05-07 15:28 | 55.80312 | -4.60958 | 5223 ft | 259 kts | 283° |
| 2026-05-07 15:28 | 55.81250 | -4.63759 | 5474 ft | 270 kts | 310° |
| 2026-05-07 15:28 | 55.82881 | -4.65443 | 5759 ft | 284 kts | 341° |
| 2026-05-07 15:29 | 55.84864 | -4.65784 | 5997 ft | 289 kts | 2° |
| 2026-05-07 15:29 | 55.86829 | -4.64916 | 6008 ft | 293 kts | 25° |
| 2026-05-07 15:29 | 55.88435 | -4.62699 | 5994 ft | 294 kts | 50° |
| 2026-05-07 15:29 | 55.89809 | -4.59988 | 5988 ft | 294 kts | 47° |
| 2026-05-07 15:30 | 55.91248 | -4.57461 | 5984 ft | 294 kts | 45° |
| 2026-05-07 15:30 | 55.92731 | -4.54942 | 5972 ft | 294 kts | 44° |
| 2026-05-07 15:30 | 55.94403 | -4.52841 | 5988 ft | 295 kts | 25° |
| 2026-05-07 15:30 | 55.96366 | -4.51840 | 5993 ft | 292 kts | 2° |
| 2026-05-07 15:31 | 55.98340 | -4.52135 | 5999 ft | 286 kts | 343° |
| 2026-05-07 15:31 | 56.00324 | -4.52585 | 6004 ft | 292 kts | 360° |
| 2026-05-07 15:31 | 56.02315 | -4.51760 | 6043 ft | 298 kts | 24° |
| 2026-05-07 15:31 | 56.04037 | -4.49696 | 7051 ft | 299 kts | 44° |
| 2026-05-07 15:32 | 56.05341 | -4.46837 | 8184 ft | 302 kts | 63° |
| 2026-05-07 15:32 | 56.06019 | -4.43287 | 9290 ft | 302 kts | 85° |
| 2026-05-07 15:32 | 56.06289 | -4.39511 | 10301 ft | 312 kts | 83° |
| 2026-05-07 15:32 | 56.06917 | -4.35644 | 10892 ft | 337 kts | 70° |
| 2026-05-07 15:33 | 56.08120 | -4.31852 | 11357 ft | 363 kts | 57° |
| 2026-05-07 15:33 | 56.09580 | -4.28073 | 11885 ft | 381 kts | 56° |
| 2026-05-07 15:33 | 56.11119 | -4.24130 | 12704 ft | 389 kts | 56° |
| 2026-05-07 15:33 | 56.12679 | -4.20095 | 13576 ft | 395 kts | 56° |
| 2026-05-07 15:34 | 56.14223 | -4.16047 | 14375 ft | 401 kts | 57° |
| 2026-05-07 15:34 | 56.15718 | -4.11780 | 15173 ft | 404 kts | 66° |
| 2026-05-07 15:34 | 56.16610 | -4.06989 | 15983 ft | 405 kts | 76° |
| 2026-05-07 15:34 | 56.17580 | -4.02192 | 16853 ft | 411 kts | 68° |
| 2026-05-07 15:35 | 56.18912 | -3.97710 | 17656 ft | 417 kts | 58° |
| 2026-05-07 15:35 | 56.20617 | -3.93441 | 18451 ft | 421 kts | 55° |
| 2026-05-07 15:35 | 56.22387 | -3.89199 | 19135 ft | 426 kts | 54° |
| 2026-05-07 15:35 | 56.24198 | -3.84935 | 19795 ft | 431 kts | 54° |
| 2026-05-07 15:36 | 56.26009 | -3.80684 | 20422 ft | 435 kts | 54° |
| 2026-05-07 15:36 | 56.27862 | -3.76322 | 21038 ft | 440 kts | 54° |
| 2026-05-07 15:36 | 56.29732 | -3.71894 | 21650 ft | 445 kts | 54° |
| 2026-05-07 15:36 | 56.31589 | -3.67460 | 22228 ft | 449 kts | 54° |
| 2026-05-07 15:37 | 56.33474 | -3.62930 | 22797 ft | 454 kts | 54° |
| 2026-05-07 15:37 | 56.35381 | -3.58330 | 23356 ft | 458 kts | 54° |
| 2026-05-07 15:37 | 56.37298 | -3.53701 | 23831 ft | 462 kts | 54° |
| 2026-05-07 15:37 | 56.39206 | -3.49090 | 24287 ft | 465 kts | 54° |
| 2026-05-07 15:38 | 56.41151 | -3.44373 | 24759 ft | 468 kts | 55° |
| 2026-05-07 15:38 | 56.43153 | -3.39725 | 25205 ft | 471 kts | 50° |
| 2026-05-07 15:38 | 56.45495 | -3.35543 | 25646 ft | 475 kts | 40° |
| 2026-05-07 15:38 | 56.48174 | -3.31977 | 26086 ft | 478 kts | 34° |
| 2026-05-07 15:39 | 56.50910 | -3.28628 | 26527 ft | 481 kts | 34° |
| 2026-05-07 15:39 | 56.53689 | -3.25206 | 26932 ft | 483 kts | 34° |
| 2026-05-07 15:39 | 56.56476 | -3.21752 | 27321 ft | 486 kts | 34° |
| 2026-05-07 15:39 | 56.59272 | -3.18271 | 27701 ft | 488 kts | 34° |
| 2026-05-07 15:40 | 56.62087 | -3.14759 | 28061 ft | 491 kts | 34° |
| 2026-05-07 15:40 | 56.64874 | -3.11273 | 28399 ft | 493 kts | 34° |
| 2026-05-07 15:40 | 56.67713 | -3.07705 | 28714 ft | 495 kts | 34° |
| 2026-05-07 15:40 | 56.70560 | -3.04126 | 29064 ft | 496 kts | 34° |
| 2026-05-07 15:41 | 56.73367 | -3.00601 | 29481 ft | 495 kts | 34° |
| 2026-05-07 15:41 | 56.76205 | -2.97042 | 29935 ft | 495 kts | 34° |
| 2026-05-07 15:41 | 56.79055 | -2.93465 | 30310 ft | 494 kts | 34° |
| 2026-05-07 15:41 | 56.81894 | -2.89892 | 30667 ft | 494 kts | 34° |
| 2026-05-07 15:42 | 56.84689 | -2.86360 | 31019 ft | 494 kts | 34° |
| 2026-05-07 15:42 | 56.87516 | -2.82769 | 31372 ft | 495 kts | 35° |
| 2026-05-07 15:42 | 56.90195 | -2.78817 | 31719 ft | 495 kts | 44° |
| 2026-05-07 15:42 | 56.92560 | -2.74226 | 32094 ft | 494 kts | 51° |
| 2026-05-07 15:43 | 56.94685 | -2.69697 | 32470 ft | 493 kts | 51° |
| 2026-05-07 15:43 | 56.96918 | -2.64938 | 32853 ft | 493 kts | 51° |
| 2026-05-07 15:43 | 56.99131 | -2.60229 | 33229 ft | 493 kts | 51° |
| 2026-05-07 15:43 | 57.01375 | -2.55452 | 33616 ft | 493 kts | 51° |
| 2026-05-07 15:44 | 57.03619 | -2.50663 | 34021 ft | 492 kts | 51° |
| 2026-05-07 15:44 | 57.05825 | -2.45954 | 34373 ft | 491 kts | 51° |
| 2026-05-07 15:44 | 57.08058 | -2.41183 | 34752 ft | 490 kts | 51° |
| 2026-05-07 15:44 | 57.10283 | -2.36419 | 35128 ft | 489 kts | 50° |
| 2026-05-07 15:45 | 57.12494 | -2.31668 | 35492 ft | 488 kts | 50° |
| 2026-05-07 15:45 | 57.14673 | -2.26976 | 35843 ft | 487 kts | 50° |
| 2026-05-07 15:45 | 57.16877 | -2.22216 | 36197 ft | 486 kts | 50° |
| 2026-05-07 15:45 | 57.19069 | -2.17472 | 36537 ft | 485 kts | 50° |
| 2026-05-07 15:46 | 57.23402 | -2.08061 | 37192 ft | 483 kts | 50° |
| 2026-05-07 15:46 | 57.25586 | -2.03310 | 37512 ft | 482 kts | 50° |
| 2026-05-07 15:46 | 57.27760 | -1.98569 | 37826 ft | 482 kts | 50° |
| 2026-05-07 15:47 | 57.29922 | -1.93842 | 38137 ft | 481 kts | 50° |
| 2026-05-07 15:47 | 57.32055 | -1.89168 | 38445 ft | 481 kts | 50° |
| 2026-05-07 15:47 | 57.34213 | -1.84435 | 38705 ft | 480 kts | 50° |
| 2026-05-07 15:47 | 57.36371 | -1.79694 | 38893 ft | 481 kts | 50° |
| 2026-05-07 15:48 | 57.38512 | -1.74990 | 38954 ft | 482 kts | 50° |
| 2026-05-07 15:48 | 57.42830 | -1.65459 | 38965 ft | 482 kts | 50° |
| 2026-05-07 15:49 | 57.47069 | -1.55873 | 38969 ft | 482 kts | 55° |
| 2026-05-07 15:49 | 57.50236 | -1.44888 | 38969 ft | 481 kts | 68° |
| 2026-05-07 15:50 | 57.52855 | -1.33404 | 38973 ft | 482 kts | 68° |
| 2026-05-07 15:50 | 57.55470 | -1.21962 | 38975 ft | 483 kts | 68° |
| 2026-05-07 15:51 | 57.58078 | -1.10490 | 38983 ft | 483 kts | 68° |
| 2026-05-07 15:51 | 57.60693 | -0.98913 | 38994 ft | 483 kts | 68° |
| 2026-05-07 15:52 | 57.63295 | -0.87326 | 38995 ft | 484 kts | 68° |
| 2026-05-07 15:52 | 57.65868 | -0.75785 | 38996 ft | 484 kts | 69° |
| 2026-05-07 15:53 | 57.68446 | -0.64148 | 39000 ft | 484 kts | 69° |
| 2026-05-07 15:53 | 57.71000 | -0.52565 | 39006 ft | 484 kts | 69° |
| 2026-05-07 15:54 | 57.73569 | -0.40872 | 39017 ft | 485 kts | 69° |
| 2026-05-07 15:54 | 57.76102 | -0.29244 | 39021 ft | 485 kts | 69° |
| 2026-05-07 15:55 | 57.78649 | -0.17510 | 39023 ft | 485 kts | 69° |
| 2026-05-07 15:55 | 57.81167 | -0.05857 | 39032 ft | 485 kts | 69° |
| 2026-05-07 15:56 | 57.83686 | 0.05883 | 39033 ft | 484 kts | 69° |
| 2026-05-07 15:56 | 57.86177 | 0.17575 | 39044 ft | 484 kts | 69° |
| 2026-05-07 15:57 | 57.88668 | 0.29334 | 39044 ft | 484 kts | 69° |
| 2026-05-07 15:57 | 57.91163 | 0.41139 | 39050 ft | 484 kts | 69° |
| 2026-05-07 15:58 | 57.93620 | 0.52878 | 39053 ft | 484 kts | 69° |
| 2026-05-07 15:58 | 57.96077 | 0.64643 | 39056 ft | 484 kts | 69° |
| 2026-05-07 15:59 | 57.98531 | 0.76488 | 39057 ft | 484 kts | 69° |
| 2026-05-07 15:59 | 58.00956 | 0.88278 | 39062 ft | 484 kts | 70° |
| 2026-05-07 16:00 | 58.03377 | 1.00162 | 39066 ft | 484 kts | 70° |
| 2026-05-07 16:00 | 58.05787 | 1.11984 | 39066 ft | 485 kts | 70° |
| 2026-05-07 16:01 | 58.08203 | 1.23881 | 39058 ft | 485 kts | 70° |
| 2026-05-07 16:01 | 58.10616 | 1.35858 | 39066 ft | 485 kts | 70° |
| 2026-05-07 16:02 | 58.12994 | 1.47762 | 39087 ft | 485 kts | 70° |
| 2026-05-07 16:02 | 58.15358 | 1.59678 | 39083 ft | 485 kts | 70° |
| 2026-05-07 16:03 | 58.17721 | 1.71677 | 39093 ft | 485 kts | 70° |
| 2026-05-07 16:03 | 58.20087 | 1.83694 | 39093 ft | 486 kts | 70° |
| 2026-05-07 16:04 | 58.22431 | 1.95668 | 39098 ft | 486 kts | 70° |
| 2026-05-07 16:04 | 58.24777 | 2.07746 | 39100 ft | 487 kts | 70° |
| 2026-05-07 16:05 | 58.27089 | 2.19774 | 39105 ft | 487 kts | 70° |
| 2026-05-07 16:05 | 58.29404 | 2.31888 | 39105 ft | 487 kts | 70° |
| 2026-05-07 16:06 | 58.31720 | 2.44013 | 39106 ft | 487 kts | 70° |
| 2026-05-07 16:06 | 58.34008 | 2.56076 | 39102 ft | 487 kts | 70° |
| 2026-05-07 16:07 | 58.36292 | 2.68249 | 39110 ft | 488 kts | 71° |
| 2026-05-07 16:07 | 58.38557 | 2.80435 | 39106 ft | 488 kts | 71° |
| 2026-05-07 16:08 | 58.40955 | 2.92508 | 39117 ft | 488 kts | 68° |
| 2026-05-07 16:08 | 58.43584 | 3.04468 | 39118 ft | 488 kts | 66° |
| 2026-05-07 16:09 | 58.46208 | 3.16359 | 39124 ft | 489 kts | 67° |
| 2026-05-07 16:09 | 58.48772 | 3.28399 | 39122 ft | 488 kts | 68° |
| 2026-05-07 16:10 | 58.51286 | 3.40397 | 39129 ft | 488 kts | 68° |
| 2026-05-07 16:10 | 58.53797 | 3.52417 | 39124 ft | 488 kts | 68° |
| 2026-05-07 16:11 | 58.56309 | 3.64500 | 39127 ft | 488 kts | 68° |
| 2026-05-07 16:11 | 58.58391 | 3.74555 | 39129 ft | 488 kts | 68° |
| 2026-05-07 16:12 | 58.61294 | 3.88639 | 39127 ft | 488 kts | 68° |
| 2026-05-07 16:12 | 58.63365 | 3.98729 | 39128 ft | 488 kts | 68° |
| 2026-05-07 16:13 | 58.66239 | 4.12848 | 39131 ft | 488 kts | 68° |
| 2026-05-07 16:13 | 58.68683 | 4.24987 | 39129 ft | 488 kts | 69° |
| 2026-05-07 16:14 | 58.70722 | 4.35144 | 39135 ft | 489 kts | 69° |
| 2026-05-07 16:14 | 58.73172 | 4.47376 | 39134 ft | 489 kts | 69° |
| 2026-05-07 16:15 | 58.75592 | 4.59567 | 39139 ft | 489 kts | 69° |
| 2026-05-07 16:15 | 58.78014 | 4.71837 | 39135 ft | 490 kts | 69° |
| 2026-05-07 16:16 | 58.80417 | 4.84076 | 39137 ft | 490 kts | 69° |
| 2026-05-07 16:16 | 58.82824 | 4.96399 | 39121 ft | 490 kts | 69° |
| 2026-05-07 16:17 | 58.85198 | 5.08652 | 39130 ft | 490 kts | 69° |
| 2026-05-07 16:17 | 58.87561 | 5.20941 | 39124 ft | 490 kts | 69° |
| 2026-05-07 16:18 | 58.89925 | 5.33325 | 39132 ft | 491 kts | 69° |
| 2026-05-07 16:18 | 58.92275 | 5.45659 | 39135 ft | 491 kts | 69° |
| 2026-05-07 16:19 | 58.94632 | 5.58111 | 39136 ft | 491 kts | 69° |
| 2026-05-07 16:19 | 58.96953 | 5.70503 | 39136 ft | 492 kts | 69° |
| 2026-05-07 16:20 | 58.99283 | 5.83002 | 39139 ft | 492 kts | 70° |
| 2026-05-07 16:20 | 59.01583 | 5.95421 | 39134 ft | 492 kts | 70° |
| 2026-05-07 16:21 | 59.03892 | 6.07967 | 39142 ft | 492 kts | 70° |
| 2026-05-07 16:21 | 59.06175 | 6.20482 | 39137 ft | 492 kts | 70° |
| 2026-05-07 16:22 | 59.08442 | 6.32986 | 39139 ft | 492 kts | 70° |
| 2026-05-07 16:22 | 59.10717 | 6.45561 | 39134 ft | 492 kts | 70° |
| 2026-05-07 16:23 | 59.12961 | 6.58057 | 39138 ft | 492 kts | 70° |
| 2026-05-07 16:23 | 59.15212 | 6.70687 | 39137 ft | 492 kts | 70° |
| 2026-05-07 16:24 | 59.17439 | 6.83268 | 39143 ft | 492 kts | 70° |
| 2026-05-07 16:24 | 59.19666 | 6.95928 | 39145 ft | 492 kts | 70° |
| 2026-05-07 16:25 | 59.21856 | 7.08523 | 39147 ft | 492 kts | 71° |
| 2026-05-07 16:25 | 59.24048 | 7.21226 | 39138 ft | 492 kts | 71° |
| 2026-05-07 16:26 | 59.26221 | 7.33852 | 39138 ft | 492 kts | 71° |
| 2026-05-07 16:26 | 59.28403 | 7.46571 | 39126 ft | 493 kts | 71° |
| 2026-05-07 16:27 | 59.30554 | 7.59252 | 39125 ft | 493 kts | 71° |
| 2026-05-07 16:27 | 59.32700 | 7.72014 | 39116 ft | 493 kts | 71° |
| 2026-05-07 16:28 | 59.34834 | 7.84793 | 39108 ft | 493 kts | 71° |
| 2026-05-07 16:28 | 59.36952 | 7.97531 | 39103 ft | 493 kts | 71° |
| 2026-05-07 16:29 | 59.39070 | 8.10353 | 39104 ft | 493 kts | 71° |
| 2026-05-07 16:29 | 59.41176 | 8.23196 | 39099 ft | 494 kts | 72° |
| 2026-05-07 16:30 | 59.43254 | 8.35995 | 39100 ft | 494 kts | 72° |
| 2026-05-07 16:30 | 59.45335 | 8.48890 | 39094 ft | 494 kts | 72° |
| 2026-05-07 16:31 | 59.47393 | 8.61727 | 39097 ft | 494 kts | 72° |
| 2026-05-07 16:31 | 59.49452 | 8.74652 | 39090 ft | 495 kts | 72° |
| 2026-05-07 16:32 | 59.51485 | 8.87542 | 39091 ft | 494 kts | 72° |
| 2026-05-07 16:32 | 59.53501 | 9.00489 | 39086 ft | 495 kts | 72° |
| 2026-05-07 16:33 | 59.55515 | 9.13394 | 39087 ft | 495 kts | 72° |
| 2026-05-07 16:33 | 59.57533 | 9.26408 | 39081 ft | 495 kts | 72° |
| 2026-05-07 16:34 | 59.59511 | 9.39354 | 39081 ft | 495 kts | 73° |
| 2026-05-07 16:34 | 59.61499 | 9.52433 | 39079 ft | 496 kts | 73° |
| 2026-05-07 16:35 | 59.63454 | 9.65422 | 39084 ft | 496 kts | 73° |
| 2026-05-07 16:35 | 59.65409 | 9.78526 | 39082 ft | 497 kts | 73° |
| 2026-05-07 16:36 | 59.67364 | 9.91664 | 39091 ft | 497 kts | 73° |
| 2026-05-07 16:36 | 59.69294 | 10.04754 | 39096 ft | 497 kts | 73° |
| 2026-05-07 16:37 | 59.71210 | 10.17885 | 39103 ft | 498 kts | 74° |
| 2026-05-07 16:37 | 59.73124 | 10.31100 | 39103 ft | 498 kts | 74° |
| 2026-05-07 16:38 | 59.75011 | 10.44249 | 39109 ft | 498 kts | 74° |
| 2026-05-07 16:38 | 59.76903 | 10.57504 | 39107 ft | 498 kts | 74° |
| 2026-05-07 16:39 | 59.78773 | 10.70684 | 39109 ft | 498 kts | 74° |
| 2026-05-07 16:39 | 59.80638 | 10.83980 | 39107 ft | 498 kts | 75° |
| 2026-05-07 16:40 | 59.82474 | 10.97206 | 39110 ft | 499 kts | 75° |
| 2026-05-07 16:40 | 59.84311 | 11.10531 | 39112 ft | 499 kts | 75° |
| 2026-05-07 16:41 | 59.86129 | 11.23783 | 39110 ft | 500 kts | 75° |
| 2026-05-07 16:41 | 59.87948 | 11.37157 | 39116 ft | 500 kts | 75° |
| 2026-05-07 16:42 | 59.89745 | 11.50475 | 39111 ft | 500 kts | 75° |
| 2026-05-07 16:42 | 59.91527 | 11.63870 | 39115 ft | 500 kts | 76° |
| 2026-05-07 16:43 | 59.93287 | 11.77237 | 39113 ft | 500 kts | 76° |
| 2026-05-07 16:43 | 59.95055 | 11.90675 | 39112 ft | 500 kts | 76° |
| 2026-05-07 16:44 | 59.96225 | 12.04265 | 39114 ft | 499 kts | 83° |
| 2026-05-07 16:44 | 59.97155 | 12.17986 | 39113 ft | 499 kts | 84° |
| 2026-05-07 16:45 | 59.98055 | 12.31667 | 39110 ft | 499 kts | 84° |
| 2026-05-07 16:45 | 59.98955 | 12.45444 | 39106 ft | 499 kts | 84° |
| 2026-05-07 16:46 | 59.99848 | 12.59191 | 39108 ft | 499 kts | 84° |
| 2026-05-07 16:46 | 60.00715 | 12.72875 | 39103 ft | 499 kts | 84° |
| 2026-05-07 16:47 | 60.01569 | 12.86612 | 39101 ft | 499 kts | 84° |
| 2026-05-07 16:47 | 60.02414 | 13.00434 | 39102 ft | 500 kts | 84° |
| 2026-05-07 16:48 | 60.03242 | 13.14160 | 39105 ft | 500 kts | 84° |
| 2026-05-07 16:48 | 60.04064 | 13.27995 | 39100 ft | 500 kts | 85° |
| 2026-05-07 16:49 | 60.04869 | 13.41834 | 39103 ft | 500 kts | 85° |
| 2026-05-07 16:49 | 60.05656 | 13.55623 | 39099 ft | 500 kts | 85° |
| 2026-05-07 16:50 | 60.06435 | 13.69491 | 39099 ft | 501 kts | 85° |
| 2026-05-07 16:50 | 60.07197 | 13.83281 | 39099 ft | 500 kts | 85° |
| 2026-05-07 16:51 | 60.07939 | 13.97084 | 39107 ft | 501 kts | 85° |
| 2026-05-07 16:51 | 60.08665 | 14.10971 | 39109 ft | 500 kts | 86° |
| 2026-05-07 16:52 | 60.09380 | 14.24864 | 39113 ft | 501 kts | 86° |
| 2026-05-07 16:52 | 60.10083 | 14.38677 | 39112 ft | 501 kts | 86° |
| 2026-05-07 16:53 | 60.10774 | 14.52599 | 39117 ft | 501 kts | 86° |
| 2026-05-07 16:53 | 60.11439 | 14.66456 | 39115 ft | 501 kts | 86° |
| 2026-05-07 16:54 | 60.12098 | 14.80301 | 39117 ft | 501 kts | 86° |
| 2026-05-07 16:54 | 60.12752 | 14.94259 | 39112 ft | 501 kts | 86° |
| 2026-05-07 16:55 | 60.13381 | 15.08104 | 39118 ft | 501 kts | 86° |
| 2026-05-07 16:55 | 60.13994 | 15.22066 | 39111 ft | 502 kts | 87° |
| 2026-05-07 16:56 | 60.14593 | 15.36042 | 39110 ft | 502 kts | 87° |
| 2026-05-07 16:56 | 60.15469 | 15.56944 | 39107 ft | 503 kts | 87° |
| 2026-05-07 16:57 | 60.16035 | 15.70953 | 39108 ft | 503 kts | 87° |
| 2026-05-07 16:57 | 60.16585 | 15.84899 | 39108 ft | 503 kts | 87° |
| 2026-05-07 16:58 | 60.17127 | 15.98931 | 39118 ft | 503 kts | 87° |
| 2026-05-07 16:58 | 60.17648 | 16.12907 | 39118 ft | 504 kts | 87° |
| 2026-05-07 16:59 | 60.18153 | 16.26989 | 39119 ft | 504 kts | 88° |
| 2026-05-07 16:59 | 60.18647 | 16.40983 | 39114 ft | 504 kts | 88° |
| 2026-05-07 17:00 | 60.19128 | 16.55055 | 39120 ft | 504 kts | 88° |
| 2026-05-07 17:00 | 60.19592 | 16.69153 | 39119 ft | 505 kts | 88° |
| 2026-05-07 17:01 | 60.20042 | 16.83182 | 39122 ft | 505 kts | 88° |
| 2026-05-07 17:01 | 60.20477 | 16.97212 | 39119 ft | 505 kts | 88° |
| 2026-05-07 17:02 | 60.20892 | 17.11319 | 39121 ft | 505 kts | 88° |
| 2026-05-07 17:02 | 60.21295 | 17.25425 | 39122 ft | 504 kts | 88° |
| 2026-05-07 17:03 | 60.21686 | 17.39473 | 39126 ft | 504 kts | 89° |
| 2026-05-07 17:03 | 60.22062 | 17.53494 | 39127 ft | 504 kts | 89° |
| 2026-05-07 17:04 | 60.22423 | 17.67583 | 39130 ft | 504 kts | 89° |
| 2026-05-07 17:04 | 60.22766 | 17.81630 | 39135 ft | 504 kts | 89° |
| 2026-05-07 17:05 | 60.23092 | 17.95729 | 39137 ft | 504 kts | 89° |
| 2026-05-07 17:05 | 60.23406 | 18.09845 | 39140 ft | 504 kts | 89° |
| 2026-05-07 17:06 | 60.23713 | 18.23904 | 39139 ft | 504 kts | 89° |
| 2026-05-07 17:06 | 60.24000 | 18.37991 | 39141 ft | 504 kts | 89° |
| 2026-05-07 17:07 | 60.24265 | 18.52020 | 39148 ft | 504 kts | 90° |
| 2026-05-07 17:07 | 60.24519 | 18.66159 | 39145 ft | 504 kts | 90° |
| 2026-05-07 17:08 | 60.24760 | 18.80206 | 39145 ft | 504 kts | 90° |
| 2026-05-07 17:08 | 60.24986 | 18.94331 | 39147 ft | 505 kts | 90° |
| 2026-05-07 17:09 | 60.25197 | 19.08483 | 39147 ft | 505 kts | 90° |
| 2026-05-07 17:09 | 60.25630 | 19.22553 | 39152 ft | 506 kts | 85° |
| 2026-05-07 17:10 | 60.26517 | 19.36630 | 39165 ft | 506 kts | 83° |
| 2026-05-07 17:10 | 60.27439 | 19.50612 | 39170 ft | 506 kts | 84° |
| 2026-05-07 17:11 | 60.28215 | 19.64737 | 39177 ft | 506 kts | 85° |
| 2026-05-07 17:11 | 60.28902 | 19.78754 | 39178 ft | 505 kts | 85° |
| 2026-05-07 17:12 | 60.29590 | 19.92889 | 39181 ft | 505 kts | 85° |
| 2026-05-07 17:12 | 60.30303 | 20.07016 | 39177 ft | 506 kts | 85° |
| 2026-05-07 17:13 | 60.31001 | 20.21073 | 39174 ft | 506 kts | 85° |
| 2026-05-07 17:13 | 60.31676 | 20.35214 | 39168 ft | 505 kts | 86° |
| 2026-05-07 17:14 | 60.32332 | 20.49256 | 39160 ft | 505 kts | 86° |
| 2026-05-07 17:14 | 60.32978 | 20.63392 | 39106 ft | 504 kts | 85° |
| 2026-05-07 17:15 | 60.33611 | 20.77524 | 39134 ft | 504 kts | 85° |
| 2026-05-07 17:15 | 60.34223 | 20.91539 | 39142 ft | 503 kts | 85° |
| 2026-05-07 17:16 | 60.34815 | 21.05619 | 39144 ft | 502 kts | 86° |
| 2026-05-07 17:16 | 60.35385 | 21.19623 | 39149 ft | 503 kts | 86° |
| 2026-05-07 17:17 | 60.35949 | 21.33754 | 39150 ft | 503 kts | 86° |
| 2026-05-07 17:17 | 60.36508 | 21.47875 | 38852 ft | 504 kts | 86° |
| 2026-05-07 17:18 | 60.36785 | 21.54873 | 38587 ft | 505 kts | 86° |
| 2026-05-07 17:18 | 60.37067 | 21.61952 | 38332 ft | 504 kts | 86° |
| 2026-05-07 17:18 | 60.37350 | 21.69036 | 38057 ft | 505 kts | 86° |
| 2026-05-07 17:18 | 60.37610 | 21.75765 | 37799 ft | 505 kts | 86° |
| 2026-05-07 17:19 | 60.37876 | 21.82852 | 37229 ft | 504 kts | 86° |
| 2026-05-07 17:19 | 60.38135 | 21.89940 | 36222 ft | 507 kts | 86° |
| 2026-05-07 17:19 | 60.38305 | 21.94679 | 35582 ft | 508 kts | 86° |
| 2026-05-07 17:19 | 60.38557 | 22.01843 | 34513 ft | 512 kts | 85° |
| 2026-05-07 17:20 | 60.38804 | 22.09081 | 33264 ft | 517 kts | 85° |
| 2026-05-07 17:20 | 60.39047 | 22.16352 | 31980 ft | 520 kts | 85° |
| 2026-05-07 17:20 | 60.39286 | 22.23686 | 30741 ft | 523 kts | 86° |
| 2026-05-07 17:20 | 60.39525 | 22.31060 | 29350 ft | 526 kts | 86° |
| 2026-05-07 17:21 | 60.39768 | 22.38369 | 28043 ft | 526 kts | 85° |
| 2026-05-07 17:21 | 60.40020 | 22.45726 | 26882 ft | 522 kts | 86° |
| 2026-05-07 17:21 | 60.40269 | 22.53028 | 25781 ft | 517 kts | 86° |
| 2026-05-07 17:21 | 60.40506 | 22.60234 | 24791 ft | 511 kts | 86° |
| 2026-05-07 17:22 | 60.40724 | 22.67361 | 23864 ft | 505 kts | 87° |
| 2026-05-07 17:22 | 60.40921 | 22.74345 | 22905 ft | 498 kts | 87° |
| 2026-05-07 17:22 | 60.41120 | 22.81274 | 22191 ft | 487 kts | 87° |
| 2026-05-07 17:22 | 60.41311 | 22.88042 | 21545 ft | 476 kts | 87° |
| 2026-05-07 17:23 | 60.41495 | 22.94683 | 20949 ft | 466 kts | 87° |
| 2026-05-07 17:23 | 60.41674 | 23.01067 | 20468 ft | 455 kts | 86° |
| 2026-05-07 17:23 | 60.41859 | 23.07351 | 20167 ft | 433 kts | 86° |
| 2026-05-07 17:23 | 60.42017 | 23.13271 | 19618 ft | 412 kts | 87° |
| 2026-05-07 17:24 | 60.42164 | 23.19000 | 18884 ft | 401 kts | 86° |
| 2026-05-07 17:24 | 60.42311 | 23.24619 | 18181 ft | 398 kts | 86° |
| 2026-05-07 17:24 | 60.42461 | 23.30126 | 17651 ft | 394 kts | 86° |
| 2026-05-07 17:24 | 60.42609 | 23.35658 | 17162 ft | 390 kts | 86° |
| 2026-05-07 17:25 | 60.42751 | 23.41114 | 16686 ft | 385 kts | 86° |
| 2026-05-07 17:25 | 60.42881 | 23.46438 | 16236 ft | 381 kts | 87° |
| 2026-05-07 17:25 | 60.43003 | 23.51762 | 15809 ft | 376 kts | 87° |
| 2026-05-07 17:25 | 60.43119 | 23.57026 | 15373 ft | 372 kts | 87° |
| 2026-05-07 17:26 | 60.43239 | 23.62228 | 14949 ft | 368 kts | 86° |
| 2026-05-07 17:26 | 60.43360 | 23.67375 | 14540 ft | 363 kts | 86° |
| 2026-05-07 17:26 | 60.43478 | 23.72386 | 14139 ft | 359 kts | 86° |
| 2026-05-07 17:26 | 60.43597 | 23.77405 | 13720 ft | 355 kts | 86° |
| 2026-05-07 17:27 | 60.43709 | 23.82395 | 13205 ft | 352 kts | 87° |
| 2026-05-07 17:27 | 60.43812 | 23.87328 | 12718 ft | 348 kts | 86° |
| 2026-05-07 17:27 | 60.43996 | 23.92121 | 12252 ft | 343 kts | 83° |
| 2026-05-07 17:27 | 60.44256 | 23.96894 | 11828 ft | 337 kts | 82° |
| 2026-05-07 17:28 | 60.44552 | 24.01575 | 11428 ft | 331 kts | 81° |
| 2026-05-07 17:28 | 60.44855 | 24.06169 | 10995 ft | 326 kts | 82° |
| 2026-05-07 17:28 | 60.45148 | 24.10697 | 10576 ft | 321 kts | 82° |
| 2026-05-07 17:28 | 60.45421 | 24.15092 | 10186 ft | 315 kts | 82° |
| 2026-05-07 17:29 | 60.45668 | 24.19485 | 9752 ft | 311 kts | 83° |
| 2026-05-07 17:29 | 60.45888 | 24.23821 | 9239 ft | 307 kts | 83° |
| 2026-05-07 17:29 | 60.46110 | 24.28112 | 8739 ft | 304 kts | 83° |
| 2026-05-07 17:29 | 60.46334 | 24.32326 | 8212 ft | 302 kts | 82° |
| 2026-05-07 17:30 | 60.46566 | 24.36548 | 7677 ft | 299 kts | 82° |
| 2026-05-07 17:30 | 60.46805 | 24.40732 | 7165 ft | 296 kts | 81° |
| 2026-05-07 17:30 | 60.47033 | 24.44806 | 6658 ft | 293 kts | 84° |
| 2026-05-07 17:30 | 60.46940 | 24.48987 | 5838 ft | 297 kts | 94° |
| 2026-05-07 17:31 | 60.46739 | 24.53082 | 5047 ft | 286 kts | 94° |
| 2026-05-07 17:31 | 60.46569 | 24.57028 | 4286 ft | 276 kts | 92° |
| 2026-05-07 17:31 | 60.46440 | 24.60848 | 3707 ft | 273 kts | 92° |
| 2026-05-07 17:31 | 60.46328 | 24.64639 | 3443 ft | 262 kts | 92° |
| 2026-05-07 17:32 | 60.46202 | 24.68231 | 3253 ft | 250 kts | 93° |
| 2026-05-07 17:32 | 60.46086 | 24.71623 | 3062 ft | 239 kts | 92° |
| 2026-05-07 17:32 | 60.45977 | 24.74917 | 2952 ft | 228 kts | 93° |
| 2026-05-07 17:32 | 60.45862 | 24.78035 | 2868 ft | 217 kts | 93° |
| 2026-05-07 17:33 | 60.45708 | 24.81015 | 2743 ft | 209 kts | 103° |
| 2026-05-07 17:33 | 60.45072 | 24.83574 | 2629 ft | 201 kts | 133° |
| 2026-05-07 17:33 | 60.43972 | 24.85172 | 2518 ft | 196 kts | 156° |
| 2026-05-07 17:33 | 60.42761 | 24.86407 | 2396 ft | 194 kts | 154° |
| 2026-05-07 17:34 | 60.41552 | 24.87665 | 2172 ft | 196 kts | 155° |
| 2026-05-07 17:34 | 60.40373 | 24.88885 | 2081 ft | 182 kts | 155° |
| 2026-05-07 17:34 | 60.39260 | 24.90023 | 1759 ft | 181 kts | 154° |
| 2026-05-07 17:34 | 60.38171 | 24.91171 | 1415 ft | 170 kts | 155° |
| 2026-05-07 17:35 | 60.37175 | 24.92202 | 1209 ft | 150 kts | 155° |
| 2026-05-07 17:35 | 60.36290 | 24.93098 | 987 ft | 135 kts | 155° |
| 2026-05-07 17:35 | 60.35490 | 24.93926 | 772 ft | 126 kts | 154° |
| 2026-05-07 17:35 | 60.34730 | 24.94719 | 606 ft | 119 kts | 155° |
| 2026-05-07 17:36 | 60.33999 | 24.95465 | 430 ft | 116 kts | 156° |
| 2026-05-07 17:36 | 60.33277 | 24.96208 | 272 ft | 116 kts | 156° |
| 2026-05-07 17:36 | 60.32566 | 24.96930 | 168 ft | 107 kts | 155° |
| 2026-05-07 17:36 | 60.32042 | 24.97461 | 152 ft | 59 kts | 153° |
| 2026-05-07 17:37 | 60.31795 | 24.97713 | 153 ft | 28 kts | 153° |
| 2026-05-07 17:37 | 60.31683 | 24.97669 | 158 ft | 13 kts | 239° |
| 2026-05-07 17:37 | 60.31670 | 24.97621 | 160 ft | 0 kts | 243° |
| 2026-05-07 17:38 | 60.31665 | 24.97528 | 161 ft | 10 kts | 296° |
| 2026-05-07 17:38 | 60.31721 | 24.97457 | 161 ft | 10 kts | 333° |
| 2026-05-07 17:39 | 60.31786 | 24.97391 | 161 ft | 11 kts | 333° |
| 2026-05-07 17:39 | 60.31854 | 24.97320 | 161 ft | 11 kts | 332° |
| 2026-05-07 17:39 | 60.31925 | 24.97244 | 161 ft | 12 kts | 332° |
| 2026-05-07 17:39 | 60.31998 | 24.97168 | 161 ft | 12 kts | 333° |
| 2026-05-07 17:40 | 60.32078 | 24.97085 | 161 ft | 13 kts | 332° |
| 2026-05-07 17:40 | 60.32157 | 24.97000 | 161 ft | 13 kts | 332° |
| 2026-05-07 17:40 | 60.32234 | 24.96921 | 161 ft | 11 kts | 334° |
| 2026-05-07 17:40 | 60.32289 | 24.96866 | 161 ft | 9 kts | 333° |
| 2026-05-07 17:41 | 60.32297 | 24.96776 | 161 ft | 7 kts | 234° |
| 2026-05-07 17:41 | 60.32254 | 24.96680 | 162 ft | 11 kts | 227° |
| 2026-05-07 17:41 | 60.32190 | 24.96539 | 162 ft | 16 kts | 227° |
| 2026-05-07 17:41 | 60.32104 | 24.96347 | 162 ft | 21 kts | 228° |
| 2026-05-07 17:42 | 60.31997 | 24.96115 | 162 ft | 24 kts | 226° |
| 2026-05-07 17:42 | 60.31880 | 24.95855 | 162 ft | 24 kts | 227° |
| 2026-05-07 17:42 | 60.31774 | 24.95623 | 162 ft | 24 kts | 227° |
| 2026-05-07 17:42 | 60.31653 | 24.95354 | 162 ft | 27 kts | 228° |
| 2026-05-07 17:43 | 60.31571 | 24.95170 | 162 ft | 13 kts | 227° |
| 2026-05-07 17:43 | 60.31487 | 24.95195 | 162 ft | 13 kts | 136° |
| 2026-05-07 17:43 | 60.31445 | 24.95323 | 162 ft | 10 kts | 83° |
| 2026-05-07 17:43 | 60.31468 | 24.95402 | 162 ft | 4 kts | 86° |
| 2026-05-07 17:44 | 60.31448 | 24.95451 | 162 ft | 5 kts | 140° |
| 2026-05-07 17:44 | 60.31423 | 24.95496 | 162 ft | 4 kts | 137° |
| 2026-05-07 17:44 | 60.31410 | 24.95521 | 162 ft | 1 kts | 137° |
| 2026-05-07 17:44 | 60.31410 | 24.95522 | 162 ft | 0 kts | 137° |